createdAt,value
2023-09-22T00:02:41.577Z,22.69
2023-09-22T00:06:33.788Z,22.64
2023-09-22T00:10:24.446Z,22.53
2023-09-22T00:14:20.361Z,22.46
2023-09-22T00:18:30.458Z,22.40
2023-09-22T00:22:40.555Z,22.40
2023-09-22T00:26:40.698Z,22.33
2023-09-22T00:30:36.275Z,22.29
2023-09-22T00:34:46.507Z,22.21
2023-09-22T00:38:38.615Z,22.14
2023-09-22T00:42:28.670Z,22.18
2023-09-22T00:46:34.357Z,22.11
2023-09-22T00:50:25.133Z,22.12
2023-09-22T00:54:21.164Z,22.03
2023-09-22T00:58:21.159Z,21.98
2023-09-22T01:02:33.731Z,21.93
2023-09-22T01:06:22.545Z,21.88
2023-09-22T01:10:32.512Z,21.87
2023-09-22T01:18:51.396Z,21.80
2023-09-22T01:22:44.392Z,21.67
2023-09-22T01:26:32.426Z,21.66
2023-09-22T01:30:40.608Z,21.54
2023-09-22T01:34:28.679Z,21.46
2023-09-22T01:38:37.550Z,21.37
2023-09-22T01:42:45.938Z,21.31
2023-09-22T01:46:54.141Z,21.41
2023-09-22T01:50:28.519Z,21.49
2023-09-22T01:54:05.955Z,21.38
2023-09-22T01:57:38.881Z,21.28
2023-09-22T02:01:27.787Z,21.29
2023-09-22T02:05:13.797Z,21.26
2023-09-22T02:09:04.040Z,21.15
2023-09-22T02:12:52.075Z,21.17
2023-09-22T02:16:23.117Z,21.20
2023-09-22T02:20:04.451Z,21.17
2023-09-22T02:23:50.251Z,21.15
2023-09-22T02:27:37.969Z,21.08
2023-09-22T02:31:25.861Z,21.03
2023-09-22T02:35:12.302Z,20.95
2023-09-22T02:38:46.985Z,20.82
2023-09-22T02:42:28.314Z,20.77
2023-09-22T02:46:19.702Z,20.62
2023-09-22T02:50:08.124Z,20.55
2023-09-22T02:53:55.570Z,20.47
2023-09-22T02:57:23.450Z,20.40
2023-09-22T03:01:14.087Z,20.31
2023-09-22T03:05:04.263Z,20.29
2023-09-22T03:08:52.173Z,20.01
2023-09-22T03:12:40.222Z,20.07
2023-09-22T03:16:21.971Z,20.09
2023-09-22T03:20:05.657Z,20.11
2023-09-22T03:23:53.543Z,19.96
2023-09-22T03:27:47.277Z,19.86
2023-09-22T03:31:35.275Z,19.54
2023-09-22T03:35:06.656Z,19.23
2023-09-22T03:38:38.343Z,19.36
2023-09-22T03:42:21.547Z,19.39
2023-09-22T03:45:46.412Z,19.42
2023-09-22T03:49:34.566Z,19.33
2023-09-22T03:53:22.718Z,19.40
2023-09-22T03:57:10.944Z,19.52
2023-09-22T04:01:17.221Z,19.63
2023-09-22T04:05:15.974Z,19.51
2023-09-22T04:08:46.875Z,19.69
2023-09-22T04:12:35.490Z,19.92
2023-09-22T04:16:22.034Z,20.01
2023-09-22T04:20:10.064Z,19.89
2023-09-22T04:23:40.820Z,19.96
2023-09-22T04:27:30.453Z,20.00
2023-09-22T04:31:13.910Z,19.97
2023-09-22T04:35:01.542Z,19.82
2023-09-22T04:38:51.138Z,19.72
2023-09-22T04:42:39.454Z,19.59
2023-09-22T04:46:28.653Z,19.47
2023-09-22T04:50:18.973Z,19.51
2023-09-22T04:54:07.714Z,19.60
2023-09-22T04:57:56.588Z,19.58
2023-09-22T05:01:37.652Z,19.47
2023-09-22T05:05:25.655Z,19.63
2023-09-22T05:09:14.402Z,19.97
2023-09-22T05:13:02.801Z,19.86
2023-09-22T05:16:48.591Z,20.01
2023-09-22T05:20:37.447Z,20.29
2023-09-22T05:24:19.567Z,20.55
2023-09-22T05:28:09.432Z,20.79
2023-09-22T05:31:59.853Z,20.76
2023-09-22T05:35:37.004Z,20.96
2023-09-22T05:39:25.808Z,21.10
2023-09-22T05:43:14.551Z,21.37
2023-09-22T05:47:03.286Z,21.58
2023-09-22T05:51:10.926Z,21.51
2023-09-22T05:55:00.284Z,21.46
2023-09-22T05:58:53.228Z,21.51
2023-09-22T06:02:41.759Z,21.55
2023-09-22T06:06:29.870Z,21.49
2023-09-22T06:10:26.785Z,21.38
2023-09-22T06:14:14.795Z,21.63
2023-09-22T06:17:48.505Z,21.95
2023-09-22T06:21:26.863Z,22.00
2023-09-22T06:25:15.491Z,22.26
2023-09-22T06:29:05.158Z,22.69
2023-09-22T06:32:55.754Z,22.39
2023-09-22T06:37:08.027Z,22.26
2023-09-22T06:40:57.717Z,22.16
2023-09-22T06:44:45.779Z,22.22
2023-09-22T06:48:35.819Z,22.09
2023-09-22T06:52:24.245Z,21.99
2023-09-22T06:56:12.477Z,22.36
2023-09-22T07:00:21.023Z,22.38
2023-09-22T07:04:13.430Z,23.02
2023-09-22T07:08:21.252Z,23.20
2023-09-22T07:12:12.631Z,24.06
2023-09-22T07:16:07.635Z,24.16
2023-09-22T07:25:41.019Z,24.91
2023-09-22T07:33:42.150Z,25.24
2023-09-22T07:41:52.970Z,25.61
2023-09-22T07:45:42.355Z,24.88
2023-09-22T07:50:10.263Z,25.76
2023-09-22T07:54:46.104Z,26.15
2023-09-22T07:59:10.594Z,26.32
2023-09-22T08:03:33.892Z,25.99
2023-09-22T08:08:01.940Z,26.68
2023-09-22T08:12:31.944Z,27.25
2023-09-22T08:21:24.279Z,25.87
2023-09-22T08:26:01.320Z,27.03
2023-09-22T08:30:33.181Z,28.10
2023-09-22T08:34:36.293Z,26.63
2023-09-22T08:43:02.611Z,25.76
2023-09-22T08:47:42.833Z,25.70
2023-09-22T08:52:12.688Z,26.54
2023-09-22T08:56:21.620Z,26.15
2023-09-22T09:00:48.825Z,26.51
2023-09-22T09:05:34.447Z,26.75
2023-09-22T09:10:05.888Z,27.19
2023-09-22T09:14:35.159Z,27.61
2023-09-22T09:19:06.067Z,26.99
2023-09-22T09:23:34.447Z,28.00
2023-09-22T09:28:11.181Z,26.91
2023-09-22T09:32:46.261Z,26.08
2023-09-22T09:37:17.890Z,26.10
2023-09-22T09:41:36.174Z,26.16
2023-09-22T09:46:06.651Z,26.89
2023-09-22T09:50:19.160Z,26.46
2023-09-22T09:54:47.498Z,27.17
2023-09-22T09:59:20.196Z,26.99
2023-09-22T10:03:30.332Z,26.13
2023-09-22T10:07:59.458Z,26.26
2023-09-22T10:12:27.638Z,25.82
2023-09-22T10:17:05.606Z,26.58
2023-09-22T10:21:43.460Z,26.99
2023-09-22T10:30:59.185Z,27.11
2023-09-22T10:40:33.265Z,26.99
2023-09-22T10:44:42.972Z,26.32
2023-09-22T10:49:22.728Z,26.86
2023-09-22T10:53:56.604Z,27.77
2023-09-22T10:58:27.692Z,28.35
2023-09-22T11:03:07.280Z,27.14
2023-09-22T11:07:33.855Z,27.01
2023-09-22T11:11:31.388Z,26.86
2023-09-22T11:15:12.585Z,26.93
2023-09-22T11:18:59.517Z,27.16
2023-09-22T11:22:46.020Z,27.19
2023-09-22T11:31:32.290Z,28.14
2023-09-22T11:35:48.957Z,28.63
2023-09-22T11:39:44.832Z,28.67
2023-09-22T11:43:40.062Z,27.79
2023-09-22T11:47:51.624Z,27.04
2023-09-22T11:52:00.067Z,28.17
2023-09-22T11:55:51.214Z,28.58
2023-09-22T12:00:09.444Z,27.64
2023-09-22T12:04:03.819Z,27.10
2023-09-22T12:08:00.312Z,27.81
2023-09-22T12:12:13.830Z,27.35
2023-09-22T12:16:43.852Z,26.60
2023-09-22T12:21:13.779Z,26.76
2023-09-22T12:25:43.540Z,25.82
2023-09-22T12:30:13.310Z,25.81
2023-09-22T12:34:45.551Z,25.40
2023-09-22T12:39:00.122Z,26.04
2023-09-22T12:43:15.726Z,26.74
2023-09-22T12:47:35.703Z,26.11
2023-09-22T12:52:06.091Z,25.89
2023-09-22T12:56:40.425Z,27.10
2023-09-22T13:01:12.245Z,27.14
2023-09-22T13:05:44.259Z,26.15
2023-09-22T13:10:13.905Z,24.86
2023-09-22T13:14:43.854Z,24.89
2023-09-22T13:19:14.102Z,24.42
2023-09-22T13:23:44.464Z,24.36
2023-09-22T13:28:17.620Z,24.51
2023-09-22T13:32:29.317Z,24.50
2023-09-22T13:36:59.185Z,24.44
2023-09-22T13:41:28.729Z,24.57
2023-09-22T13:45:58.215Z,24.62
2023-09-22T13:50:29.245Z,24.51
2023-09-22T13:54:59.090Z,24.79
2023-09-22T13:59:29.652Z,25.30
2023-09-22T14:03:51.155Z,24.82
2023-09-22T14:08:20.595Z,24.56
2023-09-22T14:12:50.481Z,23.76
2023-09-22T14:17:20.706Z,23.67
2023-09-22T14:21:53.732Z,23.82
2023-09-22T14:26:07.419Z,23.58
2023-09-22T14:30:37.686Z,23.46
2023-09-22T14:35:07.270Z,23.15
2023-09-22T14:39:36.814Z,22.85
2023-09-22T14:44:06.459Z,22.58
2023-09-22T14:48:17.897Z,22.59
2023-09-22T14:52:48.281Z,22.24
2023-09-22T14:56:59.545Z,22.15
2023-09-22T15:01:30.091Z,22.15
2023-09-22T15:05:59.648Z,22.22
2023-09-22T15:10:29.372Z,22.12
2023-09-22T15:14:59.075Z,21.87
2023-09-22T15:19:28.449Z,21.43
2023-09-22T15:23:58.016Z,21.25
2023-09-22T15:28:27.732Z,21.33
2023-09-22T15:32:57.124Z,20.99
2023-09-22T15:37:26.682Z,20.73
2023-09-22T15:41:41.448Z,20.87
2023-09-22T15:46:11.304Z,20.70
2023-09-22T15:50:40.953Z,20.73
2023-09-22T15:55:10.745Z,20.78
2023-09-22T15:59:41.221Z,20.65
2023-09-22T16:04:10.695Z,20.38
2023-09-22T16:08:31.781Z,20.25
2023-09-22T16:12:42.209Z,20.36
2023-09-22T16:17:02.555Z,20.35
2023-09-22T16:21:32.382Z,20.38
2023-09-22T16:26:02.302Z,20.38
2023-09-22T16:30:33.248Z,20.06
2023-09-22T16:34:28.128Z,19.59
2023-09-22T16:39:02.662Z,19.04
2023-09-22T16:43:17.488Z,18.66
2023-09-22T16:47:48.506Z,18.62
2023-09-22T16:52:18.192Z,18.39
2023-09-22T16:56:50.447Z,18.28
2023-09-22T17:01:20.068Z,17.91
2023-09-22T17:05:57.266Z,17.95
2023-09-22T17:10:29.380Z,18.38
2023-09-22T17:14:41.723Z,18.21
2023-09-22T17:19:14.715Z,18.14
2023-09-22T17:23:30.114Z,18.24
2023-09-22T17:28:09.615Z,18.23
2023-09-22T17:32:25.642Z,18.02
2023-09-22T17:36:55.017Z,18.28
2023-09-22T17:40:45.259Z,18.28
2023-09-22T17:44:59.590Z,18.27
2023-09-22T17:49:02.193Z,17.95
2023-09-22T17:53:23.401Z,17.62
2023-09-22T17:57:16.892Z,17.72
2023-09-22T18:01:30.070Z,17.72
2023-09-22T18:05:25.380Z,17.90
2023-09-22T18:09:36.694Z,17.78
2023-09-22T18:13:52.009Z,17.78
2023-09-22T18:22:19.353Z,17.58
2023-09-22T18:26:10.754Z,17.66
2023-09-22T18:29:26.242Z,17.66
2023-09-22T18:33:33.444Z,17.67
2023-09-22T18:37:47.162Z,17.71
2023-09-22T18:42:03.173Z,17.82
2023-09-22T18:45:58.653Z,17.94
2023-09-22T18:49:53.103Z,17.97
2023-09-22T18:53:45.044Z,18.03
2023-09-22T18:57:36.829Z,18.01
2023-09-22T19:01:31.308Z,17.96
2023-09-22T19:05:30.471Z,17.84
2023-09-22T19:09:24.349Z,17.86
2023-09-22T19:13:24.909Z,18.04
2023-09-22T19:17:17.829Z,18.24
2023-09-22T19:21:26.209Z,18.17
2023-09-22T19:25:40.002Z,18.10
2023-09-22T19:29:34.839Z,17.98
2023-09-22T19:33:33.283Z,18.31
2023-09-22T19:37:31.409Z,18.20
2023-09-22T19:41:42.789Z,18.08
2023-09-22T19:45:33.286Z,18.13
2023-09-22T19:49:26.138Z,18.00
2023-09-22T19:53:19.473Z,18.09
2023-09-22T19:57:10.558Z,18.02
2023-09-22T20:01:02.439Z,18.32
2023-09-22T20:04:55.644Z,18.35
2023-09-22T20:08:47.446Z,18.54
2023-09-22T20:12:23.400Z,18.71
2023-09-22T20:16:13.672Z,18.59
2023-09-22T20:20:07.989Z,18.44
2023-09-22T20:24:02.981Z,18.41
2023-09-22T20:28:07.492Z,18.68
2023-09-22T20:32:20.416Z,18.73
2023-09-22T20:36:10.884Z,18.85
2023-09-22T20:40:02.794Z,18.68
2023-09-22T20:43:55.661Z,18.38
2023-09-22T20:47:46.384Z,18.44
2023-09-22T20:51:49.428Z,18.63
2023-09-22T20:55:41.320Z,18.64
2023-09-22T20:59:36.196Z,18.59
2023-09-22T21:03:26.553Z,18.49
2023-09-22T21:07:16.651Z,18.65
2023-09-22T21:11:08.934Z,18.34
2023-09-22T21:15:00.212Z,18.16
2023-09-22T21:19:07.861Z,18.17
2023-09-22T21:23:06.405Z,18.28
2023-09-22T21:27:10.498Z,18.29
2023-09-22T21:31:05.541Z,17.85
2023-09-22T21:35:44.240Z,18.19
2023-09-22T21:39:37.017Z,18.32
2023-09-22T21:43:36.089Z,18.39
2023-09-22T21:47:49.499Z,18.47
2023-09-22T21:51:45.564Z,18.55
2023-09-22T21:55:45.688Z,18.29
2023-09-22T21:59:55.991Z,18.24
2023-09-22T22:04:06.765Z,17.84
2023-09-22T22:07:57.893Z,17.89
2023-09-22T22:11:50.823Z,17.99
2023-09-22T22:15:42.050Z,18.28
2023-09-22T22:19:31.685Z,18.17
2023-09-22T22:23:23.840Z,18.28
2023-09-22T22:27:03.852Z,18.32
2023-09-22T22:30:54.690Z,18.31
2023-09-22T22:34:22.229Z,18.11
2023-09-22T22:38:17.356Z,18.03
2023-09-22T22:42:07.518Z,17.68
2023-09-22T22:46:00.320Z,17.81
2023-09-22T22:50:11.909Z,17.90
2023-09-22T22:54:05.047Z,17.84
2023-09-22T22:58:03.555Z,18.02
2023-09-22T23:01:59.210Z,18.02
2023-09-22T23:06:15.795Z,18.07
2023-09-22T23:10:05.625Z,18.03
2023-09-22T23:14:03.267Z,17.88
2023-09-22T23:18:23.311Z,17.94
2023-09-22T23:22:58.164Z,18.01
2023-09-22T23:26:56.418Z,17.89
2023-09-22T23:30:50.412Z,18.04
2023-09-22T23:34:40.847Z,18.27
2023-09-22T23:38:37.120Z,18.41
2023-09-22T23:42:32.607Z,17.99
2023-09-22T23:46:24.413Z,17.91
2023-09-22T23:50:37.303Z,17.75
2023-09-22T23:54:28.357Z,17.72
2023-09-22T23:58:27.112Z,18.05
